Airfield :
LOGIN :

Register | Disclaimer

   EN    FR    IT 

 










Legend :    VFR   Marginal VFR   IFR   Intensive IFR   Very Intensive IFR
Visi :
Ceiling :
>= 8 km
>= 3000ft
5 to 8 km
1000 to 3000 ft
1500m to 5 km
500 to 1000 ft
800 to 1500m
200 to 500 ft
< 800m
< 200 ft
Symbols :   Thunderstorms  Fog  Heavy snow  Heavy precipitations  Wind > 20 kt
SIGMETs :     Misc.  Thunderstorms  Icing  Turbulence  Mountain Waves  Volcanic Ashes






- Airport Elevation : 141 ft
- IATA code : SKS


EKSP - Srydstrup Vojens

CURRENT METAR :
  • 260550Z 23006KT CAVOK 08/08 Q1013 TEMPO 7000 -SHRA SCT020CB

EXPIRED METARs :
  • 260520Z 22008KT 9999 FEW012CB BKN065 BKN220 09/09 Q1013 TEMPO 7000 -SHRA SCT020CB
  • 260450Z 21007KT 9999 -SHRA FEW012CB BKN065 BKN220 09/09 Q1013 TEMPO 6000 -SHRA SCT012CB
  • 260420Z 21006KT 9999 FEW015TCU SCT065 BKN220 09/08 Q1013 TEMPO 6000 -SHRA SCT012CB
  • 260350Z 21005KT 9999 FEW015TCU SCT065 BKN200 09/08 Q1012
  • 260320Z 21006KT 9999 -SHRA FEW015TCU BKN055 09/08 Q1012

TAF TAF EKSP
Valid from the 26 at 06:00 until the 27 at 06:00 UTC


260507Z 2606/2706 22012KT 9999 SCT020 SCT150
BECMG 2606/2608 25012KT
TEMPO 2606/2614 7000 -SHRA SCT020CB
BECMG 2616/2618 21008KT
BECMG 2620/2623 21012G22KT 3000 -RADZ BKN006
BECMG 2623/2702 23015KT 9000 NSW SCT008 BKN015
TEMPO 2702/2706 23015G25KT 3000 -DZ BR BKN008



MET'MAP, your aeronautical weather chart ! - Copyright ORBIFLY December 2007 - Disclaimer

ORBIFLY MET'MAP TEAM :

Programming & Development : Alexandra Zaïnal
Concept & original design : Baudouin d'Aumeries
Assistance for programming : Marc-Olivier Méhu
Technical & hardware support : Manuel Goepfert

Contact : metmap@orbifly.com




SOURCES & CREDITS :

   NOAA